Time;durP1;ratioP1;P1;durP2;ratioP2;P2;SDS_P1;SDS_P2;PMS_P1;PMS_P2;Temp;Humidity;BMP_temperature;BMP_pressure;BME280_temperature;BME280_humidity;BME280_pressure;Samples;Min_cycle;Max_cycle;Signal;HPM_P1;HPM_P2
2022/08/23 00:01:07;;;;;;;;;;;;;;;17.54;100.00;101395.28;2614306;36;20340;-52
2022/08/23 00:03:35;;;;;;;;;;;;;;;17.52;100.00;101398.16;2615078;36;20380;-54
2022/08/23 00:06:04;;;;;;;;;;;;;;;17.46;100.00;101391.50;2614490;36;19954;-55
2022/08/23 00:08:34;;;;;;;;;;;;;;;17.51;100.00;101389.13;2614830;31;20433;-54
2022/08/23 00:11:03;;;;;;;;;;;;;;;17.46;100.00;101396.09;2611981;36;19959;-52
2022/08/23 00:13:32;;;;;;;;;;;;;;;17.47;100.00;101395.91;2612997;36;20067;-51
2022/08/23 00:16:00;;;;;;;;;;;;;;;17.45;100.00;101397.13;2612967;36;19950;-54
2022/08/23 00:18:28;;;;;;;;;;;;;;;17.39;100.00;101387.75;2613160;36;19977;-53
2022/08/23 00:20:56;;;;;;;;;;;;;;;17.40;100.00;101391.31;2614091;36;19959;-54
2022/08/23 00:23:24;;;;;;;;;;;;;;;17.41;100.00;101391.16;2611713;36;19943;-55
2022/08/23 00:25:55;;;;;;;;;;;;;;;17.41;100.00;101382.16;2604499;36;20459;-50
2022/08/23 00:28:23;;;;;;;;;;;;;;;17.39;100.00;101385.03;2610285;36;20428;-52
2022/08/23 00:30:51;;;;;;;;;;;;;;;17.42;100.00;101376.53;2611266;36;19958;-51
2022/08/23 00:33:20;;;;;;;;;;;;;;;17.37;100.00;101376.19;2612973;36;19947;-51
2022/08/23 00:35:48;;;;;;;;;;;;;;;17.40;100.00;101380.44;2613031;36;19955;-54
2022/08/23 00:38:16;;;;;;;;;;;;;;;17.42;100.00;101383.84;2613510;36;19954;-47
2022/08/23 00:40:45;;;;;;;;;;;;;;;17.41;100.00;101380.25;2614634;36;19954;-52
2022/08/23 00:48:43;;;;;;;;;;;;;;;17.42;100.00;101378.41;2611032;31;20014;-55
2022/08/23 00:51:14;;;;;;;;;;;;;;;17.42;100.00;101372.97;2612381;36;19977;-55
2022/08/23 00:53:44;;;;;;;;;;;;;;;17.37;100.00;101378.91;2612632;36;19970;-53
2022/08/23 00:56:13;;;;;;;;;;;;;;;17.37;100.00;101380.78;2610285;36;19997;-54
2022/08/23 00:58:45;;;;;;;;;;;;;;;17.37;100.00;101376.19;2609771;36;19946;-55
2022/08/23 01:04:00;;;;;;;;;;;;;;;17.27;100.00;101386.38;2613909;54;19951;-55
2022/08/23 01:06:33;;;;;;;;;;;;;;;17.25;100.00;101388.41;2610871;31;19951;-55
2022/08/23 01:09:03;;;;;;;;;;;;;;;17.32;100.00;101390.28;2612746;36;19971;-51
2022/08/23 01:11:34;;;;;;;;;;;;;;;17.37;100.00;101389.78;2614309;36;20061;-54
2022/08/23 01:14:10;;;;;;;;;;;;;;;17.40;100.00;101388.59;2613586;36;20053;-52
2022/08/23 01:16:44;;;;;;;;;;;;;;;17.47;100.00;101392.34;2614502;36;19951;-53
2022/08/23 01:19:18;;;;;;;;;;;;;;;17.52;100.00;101390.84;2613986;36;20002;-52
2022/08/23 01:21:49;;;;;;;;;;;;;;;17.59;100.00;101395.59;2614491;36;19950;-54
2022/08/23 01:24:20;;;;;;;;;;;;;;;17.66;100.00;101391.19;2613928;31;19958;-53
2022/08/23 01:26:49;;;;;;;;;;;;;;;17.72;100.00;101390.50;2613292;36;19947;-55
2022/08/23 01:29:18;;;;;;;;;;;;;;;17.75;100.00;101387.41;2610680;36;19958;-57
2022/08/23 01:31:46;;;;;;;;;;;;;;;17.82;100.00;101385.72;2610504;36;19951;-54
2022/08/23 01:34:16;;;;;;;;;;;;;;;17.94;100.00;101386.25;2613491;31;20459;-55
2022/08/23 01:36:45;;;;;;;;;;;;;;;18.00;100.00;101382.00;2612903;36;20386;-53
2022/08/23 01:39:13;;;;;;;;;;;;;;;17.98;100.00;101386.78;2613585;31;19973;-53
2022/08/23 01:41:45;;;;;;;;;;;;;;;17.98;100.00;101386.78;2614634;36;19978;-54
2022/08/23 01:44:13;;;;;;;;;;;;;;;17.98;100.00;101392.22;2613984;36;20431;-54
2022/08/23 01:46:44;;;;;;;;;;;;;;;18.04;100.00;101391.53;2614607;31;19953;-56
2022/08/23 01:49:13;;;;;;;;;;;;;;;18.03;100.00;101389.81;2616739;31;20509;-55
2022/08/23 01:51:41;;;;;;;;;;;;;;;18.05;100.00;101387.78;2615551;36;19965;-52
2022/08/23 01:54:09;;;;;;;;;;;;;;;18.10;100.00;101385.38;2614223;31;19961;-56
2022/08/23 01:56:38;;;;;;;;;;;;;;;18.09;100.00;101383.69;2615724;36;19957;-50
2022/08/23 01:59:09;;;;;;;;;;;;;;;18.16;100.00;101379.25;2615059;36;19981;-50
2022/08/23 02:01:38;;;;;;;;;;;;;;;18.29;100.00;101386.88;2612706;36;20039;-53
2022/08/23 02:04:06;;;;;;;;;;;;;;;18.23;100.00;101379.41;2615188;36;20383;-57
2022/08/23 02:06:34;;;;;;;;;;;;;;;18.22;100.00;101385.88;2615804;31;20386;-53
2022/08/23 02:09:03;;;;;;;;;;;;;;;18.21;100.00;101387.75;2615169;36;19958;-54
2022/08/23 02:11:33;;;;;;;;;;;;;;;18.19;100.00;101384.34;2615507;36;19951;-54
2022/08/23 02:14:04;;;;;;;;;;;;;;;18.19;100.00;101383.50;2614908;36;20317;-53
2022/08/23 02:16:36;;;;;;;;;;;;;;;18.18;100.00;101382.66;2615040;36;19958;-53
2022/08/23 02:19:05;;;;;;;;;;;;;;;18.17;100.00;101383.66;2614796;36;19951;-53
2022/08/23 02:21:37;;;;;;;;;;;;;;;18.24;100.00;101380.25;2616244;36;19983;-54
2022/08/23 02:24:05;;;;;;;;;;;;;;;18.30;100.00;101376.81;2616943;31;19977;-55
2022/08/23 02:26:33;;;;;;;;;;;;;;;18.25;100.00;101379.22;2614852;36;19953;-53
2022/08/23 02:29:02;;;;;;;;;;;;;;;18.21;100.00;101374.13;2614521;36;20384;-54
2022/08/23 02:31:30;;;;;;;;;;;;;;;18.18;100.00;101379.94;2613478;36;19952;-53
2022/08/23 02:34:01;;;;;;;;;;;;;;;18.15;100.00;101376.69;2612914;36;20445;-54
2022/08/23 02:36:29;;;;;;;;;;;;;;;18.10;100.00;101379.94;2615049;31;19950;-54
2022/08/23 02:38:57;;;;;;;;;;;;;;;18.06;100.00;101375.84;2615153;36;20352;-53
2022/08/23 02:41:26;;;;;;;;;;;;;;;17.97;100.00;101374.19;2615827;36;20360;-54
2022/08/23 02:43:55;;;;;;;;;;;;;;;17.90;100.00;101375.88;2613544;36;20417;-56
2022/08/23 02:46:23;;;;;;;;;;;;;;;17.85;100.00;101379.94;2614437;36;19958;-54
2022/08/23 02:48:51;;;;;;;;;;;;;;;17.83;100.00;101382.00;2614977;36;19950;-52
2022/08/23 02:51:22;;;;;;;;;;;;;;;17.77;100.00;101376.34;2614300;36;19977;-55
2022/08/23 02:53:50;;;;;;;;;;;;;;;17.65;100.00;101382.16;2615476;31;20508;-56
2022/08/23 02:56:18;;;;;;;;;;;;;;;17.56;100.00;101385.03;2613203;36;19954;-55
2022/08/23 02:58:46;;;;;;;;;;;;;;;17.50;100.00;101390.16;2614692;31;20506;-53
2022/08/23 03:01:18;;;;;;;;;;;;;;;17.46;100.00;101387.91;2614612;31;19947;-51
2022/08/23 03:03:47;;;;;;;;;;;;;;;17.41;100.00;101396.59;2614102;36;19957;-51
2022/08/23 03:06:16;;;;;;;;;;;;;;;17.36;100.00;101396.25;2613456;36;19947;-51
2022/08/23 03:08:46;;;;;;;;;;;;;;;17.23;100.00;101390.47;2615775;31;19965;-58
2022/08/23 03:11:15;;;;;;;;;;;;;;;17.17;100.00;101391.97;2615667;31;19969;-52
2022/08/23 03:13:44;;;;;;;;;;;;;;;17.17;100.00;101395.53;2613954;36;19954;-52
2022/08/23 03:16:13;;;;;;;;;;;;;;;17.21;100.00;101393.34;2614254;36;19950;-53
2022/08/23 03:18:41;;;;;;;;;;;;;;;17.17;100.00;101392.81;2615104;36;19950;-54
2022/08/23 03:21:10;;;;;;;;;;;;;;;17.13;100.00;101402.31;2615126;36;19954;-57
2022/08/23 03:23:39;;;;;;;;;;;;;;;17.09;100.00;101409.13;2612948;36;19955;-55
2022/08/23 03:26:10;;;;;;;;;;;;;;;16.99;100.00;101405.69;2616166;31;19954;-54
2022/08/23 03:28:39;;;;;;;;;;;;;;;17.00;100.00;101404.66;2613492;36;19955;-54
2022/08/23 03:31:07;;;;;;;;;;;;;;;16.96;100.00;101408.72;2614585;36;19953;-51
2022/08/23 03:33:36;;;;;;;;;;;;;;;16.96;100.00;101403.28;2615035;36;19951;-56
2022/08/23 03:36:08;;;;;;;;;;;;;;;16.96;100.00;101411.44;2615530;36;20514;-56
2022/08/23 03:38:36;;;;;;;;;;;;;;;17.05;100.00;101410.47;2614049;36;19951;-53
2022/08/23 03:41:05;;;;;;;;;;;;;;;17.10;100.00;101401.81;2614779;36;20139;-55
2022/08/23 03:43:36;;;;;;;;;;;;;;;17.15;100.00;101400.31;2615220;36;19958;-52
2022/08/23 03:46:04;;;;;;;;;;;;;;;17.15;100.00;101394.84;2615095;36;19985;-54
2022/08/23 03:48:32;;;;;;;;;;;;;;;17.17;100.00;101403.69;2613122;36;19954;-53
2022/08/23 03:51:00;;;;;;;;;;;;;;;17.20;100.00;101401.69;2614881;36;20050;-57
2022/08/23 03:53:29;;;;;;;;;;;;;;;17.23;100.00;101406.78;2615099;36;20324;-50
2022/08/23 03:55:57;;;;;;;;;;;;;;;17.24;100.00;101400.31;2614582;36;19950;-53
2022/08/23 03:58:28;;;;;;;;;;;;;;;17.32;100.00;101401.16;2614242;31;19997;-52
2022/08/23 04:00:59;;;;;;;;;;;;;;;17.39;100.00;101404.09;2614123;36;20033;-54
2022/08/23 04:03:27;;;;;;;;;;;;;;;17.44;100.00;101409.03;2614080;36;19942;-53
2022/08/23 04:05:55;;;;;;;;;;;;;;;17.46;100.00;101402.41;2613735;36;19981;-58
2022/08/23 04:08:24;;;;;;;;;;;;;;;17.49;100.00;101402.06;2613409;31;19978;-54
2022/08/23 04:10:52;;;;;;;;;;;;;;;17.51;100.00;101408.16;2614272;36;20370;-56
2022/08/23 04:13:21;;;;;;;;;;;;;;;17.47;100.00;101414.97;2615366;36;19981;-55
2022/08/23 04:15:50;;;;;;;;;;;;;;;17.43;100.00;101408.19;2614805;36;19989;-53
2022/08/23 04:18:21;;;;;;;;;;;;;;;17.46;100.00;101416.00;2614271;31;20398;-56
2022/08/23 04:20:49;;;;;;;;;;;;;;;17.49;100.00;101428.41;2614792;36;20621;-54
2022/08/23 04:23:17;;;;;;;;;;;;;;;17.50;100.00;101417.38;2615052;36;19993;-56
2022/08/23 04:25:45;;;;;;;;;;;;;;;17.51;100.00;101424.50;2615641;36;20348;-53
2022/08/23 04:28:13;;;;;;;;;;;;;;;17.55;100.00;101432.31;2612706;36;19969;-53
2022/08/23 04:30:44;;;;;;;;;;;;;;;17.43;100.00;101427.22;2613011;36;19950;-50
2022/08/23 04:33:12;;;;;;;;;;;;;;;17.47;100.00;101436.72;2614506;36;20040;-54
2022/08/23 04:35:43;;;;;;;;;;;;;;;17.50;100.00;101436.44;2615685;31;20376;-58
2022/08/23 04:38:11;;;;;;;;;;;;;;;17.42;100.00;101432.84;2613049;36;19977;-53
2022/08/23 04:43:20;;;;;;;;;;;;;;;17.52;100.00;101434.38;2613979;36;20034;-57
2022/08/23 04:45:48;;;;;;;;;;;;;;;17.45;100.00;101427.06;2613412;36;20378;-52
2022/08/23 04:48:16;;;;;;;;;;;;;;;17.45;100.00;101433.34;2613923;31;19989;-55
2022/08/23 04:50:47;;;;;;;;;;;;;;;17.45;100.00;101438.78;2614443;36;19989;-52
2022/08/23 04:53:15;;;;;;;;;;;;;;;17.48;100.00;101437.59;2613940;31;20081;-52
2022/08/23 04:55:43;;;;;;;;;;;;;;;17.54;100.00;101436.94;2613033;36;19955;-54
2022/08/23 04:58:11;;;;;;;;;;;;;;;17.57;100.00;101433.88;2610968;31;20440;-54
2022/08/23 05:00:39;;;;;;;;;;;;;;;17.68;100.00;101432.69;2612045;36;19954;-51
2022/08/23 05:03:07;;;;;;;;;;;;;;;17.78;100.00;101443.41;2612519;36;19957;-52
2022/08/23 05:05:35;;;;;;;;;;;;;;;17.82;100.00;101448.34;2611740;31;19954;-52
2022/08/23 05:08:06;;;;;;;;;;;;;;;17.90;100.00;101452.13;2612871;36;19973;-55
2022/08/23 05:10:34;;;;;;;;;;;;;;;17.96;100.00;101451.44;2613184;36;19978;-51
2022/08/23 05:13:02;;;;;;;;;;;;;;;18.07;100.00;101463.88;2614717;36;19962;-56
2022/08/23 05:15:30;;;;;;;;;;;;;;;18.09;100.00;101451.78;2613571;31;19946;-53
2022/08/23 05:17:58;;;;;;;;;;;;;;;18.21;100.00;101463.19;2615269;36;19954;-57
2022/08/23 05:20:26;;;;;;;;;;;;;;;18.39;100.00;101457.56;2615456;36;19954;-54
2022/08/23 05:22:55;;;;;;;;;;;;;;;18.36;100.00;101455.19;2616370;36;19981;-55
2022/08/23 05:25:48;;;;;;;;;;;;;;;18.45;100.00;101456.03;2616022;36;19958;-57
2022/08/23 05:28:13;;;;;;;;;;;;;;;18.47;100.00;101459.41;2615792;31;19977;-55
2022/08/23 05:30:42;;;;;;;;;;;;;;;18.53;100.00;101456.81;2615184;36;19950;-57
2022/08/23 05:33:10;;;;;;;;;;;;;;;18.65;100.00;101459.19;2609053;36;19974;-58
2022/08/23 05:35:39;;;;;;;;;;;;;;;18.59;100.00;101451.72;2616227;36;20586;-55
2022/08/23 05:38:07;;;;;;;;;;;;;;;18.47;100.00;101462.13;2613874;36;19966;-56
2022/08/23 05:40:37;;;;;;;;;;;;;;;18.42;100.00;101459.94;2614761;36;19946;-59
2022/08/23 05:43:05;;;;;;;;;;;;;;;18.41;100.00;101466.41;2615349;36;19950;-54
2022/08/23 05:45:34;;;;;;;;;;;;;;;18.44;100.00;101474.22;2615792;36;19962;-54
2022/08/23 05:48:02;;;;;;;;;;;;;;;18.60;100.00;101480.69;2630238;36;19970;-54
2022/08/23 05:50:30;;;;;;;;;;;;;;;18.61;100.00;101485.09;2616152;36;20380;-55
2022/08/23 05:52:58;;;;;;;;;;;;;;;18.60;100.00;101491.59;2614252;36;19954;-52
2022/08/23 05:55:26;;;;;;;;;;;;;;;18.55;100.00;101490.22;2615665;31;19950;-53
2022/08/23 05:57:56;;;;;;;;;;;;;;;18.87;100.00;101493.94;2615399;36;19954;-52
2022/08/23 06:00:25;;;;;;;;;;;;;;;19.16;100.00;101487.00;2614848;31;19985;-56
2022/08/23 06:02:53;;;;;;;;;;;;;;;19.23;100.00;101487.13;2614972;36;19946;-56
2022/08/23 06:05:22;;;;;;;;;;;;;;;19.22;100.00;101486.28;2615639;31;19977;-53
2022/08/23 06:07:50;;;;;;;;;;;;;;;19.22;100.00;101491.72;2615106;36;19977;-57
2022/08/23 06:10:20;;;;;;;;;;;;;;;19.67;100.00;101491.13;2615145;31;20514;-53
2022/08/23 06:12:48;;;;;;;;;;;;;;;19.76;100.00;101477.25;2614579;31;19943;-53
2022/08/23 06:15:19;;;;;;;;;;;;;;;19.88;100.00;101480.44;2615496;36;19958;-53
2022/08/23 06:17:48;;;;;;;;;;;;;;;19.96;100.00;101471.31;2614673;36;19981;-52
2022/08/23 06:20:16;;;;;;;;;;;;;;;20.10;100.00;101483.34;2615352;36;19958;-55
2022/08/23 06:22:44;;;;;;;;;;;;;;;20.30;100.00;101479.06;2615342;36;19946;-52
2022/08/23 06:25:12;;;;;;;;;;;;;;;20.28;100.00;101486.59;2615632;36;19947;-53
2022/08/23 06:27:40;;;;;;;;;;;;;;;20.41;100.00;101485.13;2614753;36;19946;-52
2022/08/23 06:30:09;;;;;;;;;;;;;;;20.52;100.00;101478.34;2615005;36;19950;-52
2022/08/23 06:32:40;;;;;;;;;;;;;;;20.18;100.00;101479.69;2615356;36;19969;-53
2022/08/23 06:35:08;;;;;;;;;;;;;;;20.20;100.00;101483.06;2614997;36;20428;-55
2022/08/23 06:37:38;;;;;;;;;;;;;;;20.24;100.00;101481.69;2615280;36;19947;-53
2022/08/23 06:40:07;;;;;;;;;;;;;;;20.40;100.00;101483.41;2615058;36;20359;-54
2022/08/23 06:42:35;;;;;;;;;;;;;;;20.56;100.00;101477.78;2615606;36;19993;-53
2022/08/23 06:45:03;;;;;;;;;;;;;;;20.89;100.00;101482.06;2614465;36;20834;-53
2022/08/23 06:47:31;;;;;;;;;;;;;;;20.98;100.00;101480.94;2615144;36;19946;-55
2022/08/23 06:50:02;;;;;;;;;;;;;;;21.17;100.00;101474.00;2616287;36;20434;-53
2022/08/23 06:52:30;;;;;;;;;;;;;;;21.37;100.00;101467.94;2614732;36;20456;-51
2022/08/23 06:54:58;;;;;;;;;;;;;;;21.34;100.00;101475.47;2615518;31;19947;-55
2022/08/23 06:57:26;;;;;;;;;;;;;;;21.00;100.00;101476.94;2613840;36;19985;-53
2022/08/23 06:59:54;;;;;;;;;;;;;;;20.97;100.00;101477.34;2615326;36;19958;-53
2022/08/23 07:02:22;;;;;;;;;;;;;;;21.08;100.00;101478.75;2614943;36;19991;-56
2022/08/23 07:04:52;;;;;;;;;;;;;;;21.62;100.00;101468.47;2614892;36;19946;-51
2022/08/23 07:07:23;;;;;;;;;;;;;;;21.72;100.00;101471.72;2613353;36;20574;-54
2022/08/23 07:09:51;;;;;;;;;;;;;;;22.03;100.00;101470.53;2613641;36;19947;-56
2022/08/23 07:12:20;;;;;;;;;;;;;;;22.15;100.00;101470.84;2612550;31;19958;-55
2022/08/23 07:14:48;;;;;;;;;;;;;;;21.93;100.00;101470.88;2612515;36;19950;-55
2022/08/23 07:17:17;;;;;;;;;;;;;;;22.19;100.00;101473.00;2613011;36;19954;-56
2022/08/23 07:19:45;;;;;;;;;;;;;;;22.34;100.00;101475.66;2613720;36;20408;-54
2022/08/23 07:22:13;;;;;;;;;;;;;;;22.44;100.00;101477.22;2613914;31;19973;-54
2022/08/23 07:24:44;;;;;;;;;;;;;;;22.31;100.00;101481.53;2613344;36;19961;-50
2022/08/23 07:27:13;;;;;;;;;;;;;;;22.81;100.00;101476.00;2613173;36;19958;-55
2022/08/23 07:29:41;;;;;;;;;;;;;;;23.25;100.00;101476.66;2613134;36;19951;-52
2022/08/23 07:32:09;;;;;;;;;;;;;;;22.59;100.00;101477.97;2612785;36;20447;-56
2022/08/23 07:34:38;;;;;;;;;;;;;;;22.83;100.00;101473.03;2613383;36;20506;-54
2022/08/23 07:37:06;;;;;;;;;;;;;;;22.89;100.00;101477.72;2612721;36;19977;-52
2022/08/23 07:39:34;;;;;;;;;;;;;;;22.77;100.00;101482.94;2613084;36;19969;-54
2022/08/23 07:42:05;;;;;;;;;;;;;;;22.61;100.00;101486.81;2614811;31;19976;-53
2022/08/23 07:44:33;;;;;;;;;;;;;;;22.81;100.00;101489.72;2614036;36;20005;-51
2022/08/23 07:47:02;;;;;;;;;;;;;;;23.17;100.00;101490.56;2614532;36;20371;-56
2022/08/23 07:49:30;;;;;;;;;;;;;;;23.60;100.00;101487.53;2615101;36;20476;-51
2022/08/23 07:51:58;;;;;;;;;;;;;;;23.86;100.00;101489.50;2614216;36;19958;-54
2022/08/23 07:54:27;;;;;;;;;;;;;;;23.84;100.00;101486.09;2614636;36;19946;-57
2022/08/23 07:56:55;;;;;;;;;;;;;;;23.95;100.00;101488.28;2614837;36;20459;-57
2022/08/23 07:59:26;;;;;;;;;;;;;;;23.59;100.00;101496.84;2613727;36;19954;-54
2022/08/23 08:01:55;;;;;;;;;;;;;;;23.67;100.00;101504.03;2613510;36;19951;-53
2022/08/23 08:04:23;;;;;;;;;;;;;;;23.51;100.00;101502.50;2615225;36;20329;-53
2022/08/23 08:06:52;;;;;;;;;;;;;;;23.67;100.00;101515.03;2614147;36;19950;-51
2022/08/23 08:09:21;;;;;;;;;;;;;;;23.76;100.00;101511.91;2614032;36;19985;-50
2022/08/23 08:11:51;;;;;;;;;;;;;;;24.05;100.00;101514.50;2613460;36;19954;-56
2022/08/23 08:14:19;;;;;;;;;;;;;;;24.34;100.00;101507.75;2613094;36;19950;-57
2022/08/23 08:16:51;;;;;;;;;;;;;;;24.44;100.00;101508.16;2609871;36;20500;-51
2022/08/23 08:19:19;;;;;;;;;;;;;;;24.58;100.00;101522.75;2610864;36;19947;-54
2022/08/23 08:21:47;;;;;;;;;;;;;;;24.44;100.00;101524.69;2610050;36;20436;-55
2022/08/23 08:24:16;;;;;;;;;;;;;;;24.27;100.00;101517.91;2609550;31;20439;-55
2022/08/23 08:26:45;;;;;;;;;;;;;;;24.69;100.00;101517.69;2609762;36;19950;-54
2022/08/23 08:29:14;;;;;;;;;;;;;;;24.75;100.00;101520.44;2611032;36;20464;-50
2022/08/23 08:31:44;;;;;;;;;;;;;;;25.23;100.00;101516.47;2610803;36;19956;-55
2022/08/23 08:34:15;;;;;;;;;;;;;;;25.81;100.00;101518.34;2610839;31;20525;-54
2022/08/23 08:36:44;;;;;;;;;;;;;;;25.46;100.00;101515.16;2610931;36;20432;-55
2022/08/23 08:39:14;;;;;;;;;;;;;;;25.53;100.00;101522.31;2611691;36;19951;-55
2022/08/23 08:41:51;;;;;;;;;;;;;;;25.08;100.00;101527.75;2610974;36;19993;-56
2022/08/23 08:44:24;;;;;;;;;;;;;;;24.97;100.00;101522.91;2610514;36;19947;-55
2022/08/23 08:46:56;;;;;;;;;;;;;;;25.12;100.00;101520.78;2610606;36;19957;-52
2022/08/23 08:49:32;;;;;;;;;;;;;;;25.40;100.00;101521.53;2609926;36;19950;-53
2022/08/23 08:52:04;;;;;;;;;;;;;;;25.44;100.00;101522.78;2609702;36;19981;-51
2022/08/23 08:54:32;;;;;;;;;;;;;;;25.84;100.00;101517.91;2611332;31;21601;-52
2022/08/23 08:57:02;;;;;;;;;;;;;;;26.27;100.00;101526.56;2609691;36;19994;-54
2022/08/23 08:59:33;;;;;;;;;;;;;;;26.34;100.00;101522.66;2609982;36;19955;-53
2022/08/23 09:02:01;;;;;;;;;;;;;;;26.76;100.00;101522.09;2608701;36;19962;-56
2022/08/23 09:04:32;;;;;;;;;;;;;;;26.70;100.00;101525.75;2610181;36;19963;-51
2022/08/23 09:07:04;;;;;;;;;;;;;;;26.51;100.00;101522.91;2609468;36;20436;-55
2022/08/23 09:09:50;;;;;;;;;;;;;;;27.01;100.00;101527.53;2615256;36;19954;-51
2022/08/23 09:12:22;;;;;;;;;;;;;;;26.65;100.00;101523.66;2614663;36;19935;-50
2022/08/23 09:15:00;;;;;;;;;;;;;;;26.54;100.00;101522.47;2614777;36;19950;-52
2022/08/23 09:17:33;;;;;;;;;;;;;;;26.46;100.00;101520.00;2614855;31;20469;-53
2022/08/23 09:20:05;;;;;;;;;;;;;;;27.13;100.00;101521.25;2614779;36;19954;-53
2022/08/23 09:22:36;;;;;;;;;;;;;;;26.71;100.00;101520.00;2614944;36;19954;-54
2022/08/23 09:25:04;;;;;;;;;;;;;;;26.77;100.00;101520.16;2615164;36;19946;-57
2022/08/23 09:27:32;;;;;;;;;;;;;;;26.83;100.00;101525.63;2614609;36;19974;-54
2022/08/23 09:30:02;;;;;;;;;;;;;;;27.11;100.00;101527.03;2614445;36;19950;-51
2022/08/23 09:32:32;;;;;;;;;;;;;;;27.26;100.00;101524.69;2613858;36;19959;-54
2022/08/23 09:35:11;;;;;;;;;;;;;;;27.48;100.00;101529.78;2614556;36;19947;-56
2022/08/23 09:37:55;;;;;;;;;;;;;;;27.88;100.00;101531.97;2614435;36;19946;-54
2022/08/23 09:40:30;;;;;;;;;;;;;;;27.80;100.00;101532.31;2614669;36;20373;-53
2022/08/23 09:43:07;;;;;;;;;;;;;;;28.06;100.00;101533.00;2615054;36;19977;-52
2022/08/23 09:45:36;;;;;;;;;;;;;;;28.43;100.00;101521.75;2613443;36;19950;-55
2022/08/23 09:48:05;;;;;;;;;;;;;;;28.20;98.07;101509.59;2614238;36;20011;-54
2022/08/23 09:50:38;;;;;;;;;;;;;;;27.83;100.00;101523.56;2614813;36;19951;-53
2022/08/23 09:53:09;;;;;;;;;;;;;;;27.78;100.00;101520.63;2614879;36;19938;-55
2022/08/23 09:55:38;;;;;;;;;;;;;;;27.89;100.00;101517.06;2613608;36;19995;-54
2022/08/23 09:58:08;;;;;;;;;;;;;;;28.19;88.92;101515.38;2613713;36;19962;-53
2022/08/23 10:00:37;;;;;;;;;;;;;;;28.22;100.00;101510.19;2614336;36;19950;-53
2022/08/23 10:03:21;;;;;;;;;;;;;;;28.39;95.99;101506.72;2614799;36;19951;-54
2022/08/23 10:05:54;;;;;;;;;;;;;;;28.35;99.77;101505.53;2614450;36;19951;-53
2022/08/23 10:08:27;;;;;;;;;;;;;;;28.30;98.30;101509.00;2614511;36;19958;-54
2022/08/23 10:10:58;;;;;;;;;;;;;;;28.66;88.89;101498.81;2615481;31;19947;-52
2022/08/23 10:13:26;;;;;;;;;;;;;;;28.75;91.16;101510.34;2615120;31;19946;-55
2022/08/23 10:16:00;;;;;;;;;;;;;;;28.40;90.29;101500.09;2614662;31;20845;-53
2022/08/23 10:18:35;;;;;;;;;;;;;;;28.43;94.80;101499.59;2613771;31;19954;-53
2022/08/23 10:21:07;;;;;;;;;;;;;;;28.29;96.45;101499.84;2613903;36;20451;-52
2022/08/23 10:23:45;;;;;;;;;;;;;;;28.08;93.99;101509.56;2615908;36;20332;-51
2022/08/23 10:26:20;;;;;;;;;;;;;;;28.32;89.03;101504.91;2615241;36;19985;-51
2022/08/23 10:31:38;;;;;;;;;;;;;;;29.01;84.19;101492.38;2614648;36;20432;-50
2022/08/23 10:34:14;;;;;;;;;;;;;;;28.86;91.94;101494.78;2615140;31;19947;-52
2022/08/23 10:36:50;;;;;;;;;;;;;;;29.04;89.14;101489.09;2615132;36;20435;-51
2022/08/23 10:39:23;;;;;;;;;;;;;;;29.40;88.61;101492.63;2615813;31;20432;-51
2022/08/23 10:41:59;;;;;;;;;;;;;;;29.52;87.03;101495.38;2612225;36;19951;-53
2022/08/23 10:44:34;;;;;;;;;;;;;;;29.28;84.11;101487.13;2613413;36;19954;-53
2022/08/23 10:47:19;;;;;;;;;;;;;;;29.24;87.57;101485.09;2613998;36;19966;-54
2022/08/23 10:49:50;;;;;;;;;;;;;;;29.35;92.53;101484.22;2614861;36;20405;-56
2022/08/23 10:52:24;;;;;;;;;;;;;;;29.56;86.63;101484.63;2613718;36;20006;-54
2022/08/23 10:55:05;;;;;;;;;;;;;;;29.56;85.89;101479.91;2612193;36;19958;-53
2022/08/23 10:57:35;;;;;;;;;;;;;;;29.94;74.06;101478.41;2612741;36;20016;-56
2022/08/23 11:00:04;;;;;;;;;;;;;;;29.73;83.74;101470.75;2613391;36;20407;-52
2022/08/23 11:02:37;;;;;;;;;;;;;;;29.30;82.45;101476.66;2585078;36;20467;-56
2022/08/23 11:05:07;;;;;;;;;;;;;;;29.24;81.29;101471.25;2614246;36;19969;-55
2022/08/23 11:07:40;;;;;;;;;;;;;;;29.71;82.10;101471.88;2613508;36;20363;-53
2022/08/23 11:10:12;;;;;;;;;;;;;;;29.29;95.47;101480.50;2609281;36;20364;-55
2022/08/23 11:12:52;;;;;;;;;;;;;;;29.21;83.43;101478.09;2614449;31;20470;-53
2022/08/23 11:15:23;;;;;;;;;;;;;;;28.92;72.47;101474.44;2614903;36;20384;-52
2022/08/23 11:17:57;;;;;;;;;;;;;;;29.22;79.41;101476.19;2613964;36;19954;-53
2022/08/23 11:20:40;;;;;;;;;;;;;;;29.29;66.82;101469.41;2614128;36;20064;-49
2022/08/23 11:23:16;;;;;;;;;;;;;;;29.55;70.15;101472.69;2614544;36;20475;-52
2022/08/23 11:25:46;;;;;;;;;;;;;;;29.46;61.10;101476.94;2612821;36;19951;-50
2022/08/23 11:28:29;;;;;;;;;;;;;;;29.28;62.37;101473.25;2612628;36;19951;-53
2022/08/23 11:31:17;;;;;;;;;;;;;;;29.31;66.50;101478.34;2613148;31;19969;-51
2022/08/23 11:33:47;;;;;;;;;;;;;;;29.33;70.99;101476.16;2613791;31;19993;-55
2022/08/23 11:36:20;;;;;;;;;;;;;;;29.18;74.21;101484.13;2614478;31;20347;-50
2022/08/23 11:39:05;;;;;;;;;;;;;;;29.57;70.79;101481.59;2612092;36;19977;-50
2022/08/23 11:41:34;;;;;;;;;;;;;;;30.21;60.75;101486.06;2615025;31;20367;-49
2022/08/23 11:44:23;;;;;;;;;;;;;;;29.93;63.52;101473.94;2613874;36;19950;-55
2022/08/23 11:47:00;;;;;;;;;;;;;;;29.67;74.67;101481.78;2610267;36;20437;-49
2022/08/23 11:49:51;;;;;;;;;;;;;;;29.56;72.00;101485.44;2613173;36;19938;-52
2022/08/23 11:52:31;;;;;;;;;;;;;;;29.55;74.29;101489.34;2612054;36;19951;-49
2022/08/23 11:55:08;;;;;;;;;;;;;;;29.72;69.69;101478.25;2611404;31;19998;-49
2022/08/23 11:57:48;;;;;;;;;;;;;;;29.57;66.95;101481.59;2612303;36;20424;-55
2022/08/23 12:00:18;;;;;;;;;;;;;;;29.13;69.17;101486.81;2613346;36;19986;-53
2022/08/23 12:02:52;;;;;;;;;;;;;;;29.24;69.67;101485.09;2606149;36;19946;-51
2022/08/23 12:05:31;;;;;;;;;;;;;;;29.48;62.81;101488.63;2613784;36;19962;-52
2022/08/23 12:08:16;;;;;;;;;;;;;;;29.71;68.89;101493.22;2614371;36;20364;-53
2022/08/23 12:11:02;;;;;;;;;;;;;;;29.49;65.89;101485.63;2613287;36;19946;-52
2022/08/23 12:13:32;;;;;;;;;;;;;;;29.70;68.87;101494.31;2607526;31;20586;-53
2022/08/23 12:16:08;;;;;;;;;;;;;;;29.56;63.62;101492.94;2613741;36;19947;-51
2022/08/23 12:18:38;;;;;;;;;;;;;;;29.42;64.42;101484.94;2614014;36;19947;-49
2022/08/23 12:21:08;;;;;;;;;;;;;;;29.11;72.45;101483.44;2612454;31;19954;-48
2022/08/23 12:23:45;;;;;;;;;;;;;;;28.86;70.72;101489.25;2613851;31;19985;-51
2022/08/23 12:26:24;;;;;;;;;;;;;;;28.67;70.60;101484.72;2612106;31;19958;-54
2022/08/23 12:28:55;;;;;;;;;;;;;;;28.83;70.49;101488.66;2613841;36;19962;-53
2022/08/23 12:31:26;;;;;;;;;;;;;;;28.98;72.38;101490.91;2613439;36;19981;-51
2022/08/23 12:34:00;;;;;;;;;;;;;;;29.10;65.63;101495.59;2613311;36;19939;-51
2022/08/23 12:36:33;;;;;;;;;;;;;;;29.18;71.94;101489.66;2613924;36;20041;-51
2022/08/23 12:39:04;;;;;;;;;;;;;;;28.96;64.60;101484.78;2612319;36;19978;-52
2022/08/23 12:41:50;;;;;;;;;;;;;;;28.99;70.93;101492.63;2612151;36;19962;-50
2022/08/23 12:44:19;;;;;;;;;;;;;;;29.63;66.29;101488.09;2614414;36;20014;-53
2022/08/23 12:46:48;;;;;;;;;;;;;;;29.63;65.96;101497.25;2612651;36;19951;-53
2022/08/23 12:49:25;;;;;;;;;;;;;;;29.48;68.60;101499.75;2613907;36;19982;-50
2022/08/23 12:51:54;;;;;;;;;;;;;;;29.31;64.60;101494.97;2613601;36;20317;-51
2022/08/23 12:54:24;;;;;;;;;;;;;;;29.52;62.51;101489.84;2614005;31;19954;-53
2022/08/23 12:56:56;;;;;;;;;;;;;;;29.44;66.69;101490.22;2611747;36;20443;-53
2022/08/23 12:59:36;;;;;;;;;;;;;;;30.18;64.12;101487.44;2614413;36;19975;-53